createdAt,value
2022-10-16T00:00:23.805Z,83.38
2022-10-16T00:02:56.711Z,83.37
2022-10-16T00:05:30.032Z,83.37
2022-10-16T00:08:04.530Z,83.45
2022-10-16T00:10:37.945Z,83.55
2022-10-16T00:13:10.887Z,83.61
2022-10-16T00:15:45.166Z,83.64
2022-10-16T00:18:17.916Z,83.59
2022-10-16T00:20:51.006Z,83.59
2022-10-16T00:23:24.638Z,83.60
2022-10-16T00:25:59.695Z,83.58
2022-10-16T00:28:33.195Z,83.56
2022-10-16T00:31:12.075Z,83.65
2022-10-16T00:33:45.239Z,83.75
2022-10-16T00:36:21.789Z,83.84
2022-10-16T00:38:57.491Z,83.92
2022-10-16T00:41:31.719Z,83.93
2022-10-16T00:44:08.379Z,83.95
2022-10-16T00:46:45.740Z,83.97
2022-10-16T00:49:20.395Z,84.03
2022-10-16T00:51:55.357Z,84.13
2022-10-16T00:54:32.989Z,84.22
2022-10-16T00:57:08.736Z,84.24
2022-10-16T00:59:44.221Z,84.28
2022-10-16T01:02:19.298Z,84.37
2022-10-16T01:04:55.011Z,84.51
2022-10-16T01:07:38.561Z,84.63
2022-10-16T01:10:52.393Z,84.83
2022-10-16T01:13:38.802Z,84.95
2022-10-16T01:16:18.429Z,84.97
2022-10-16T01:19:03.453Z,85.05
2022-10-16T01:21:42.839Z,85.00
2022-10-16T01:24:26.042Z,85.03
2022-10-16T01:27:19.359Z,85.12
2022-10-16T01:30:21.941Z,85.24
2022-10-16T01:32:59.529Z,85.33
2022-10-16T01:35:47.708Z,85.39
2022-10-16T01:38:27.828Z,85.42
2022-10-16T01:41:11.395Z,85.38
2022-10-16T01:43:54.183Z,85.44
2022-10-16T01:46:28.152Z,85.55
2022-10-16T01:49:02.970Z,85.60
2022-10-16T01:51:36.115Z,85.63
2022-10-16T01:54:11.046Z,85.66
2022-10-16T01:56:44.954Z,85.69
2022-10-16T01:59:21.967Z,85.78
2022-10-16T02:01:59.376Z,85.83
2022-10-16T02:04:39.327Z,85.99
2022-10-16T02:07:12.429Z,86.11
2022-10-16T02:09:46.800Z,86.16
2022-10-16T02:12:33.371Z,86.14
2022-10-16T02:15:06.873Z,86.15
2022-10-16T02:17:41.115Z,86.18
2022-10-16T02:20:14.543Z,86.24
2022-10-16T02:22:49.840Z,86.34
2022-10-16T02:25:33.058Z,86.36
2022-10-16T02:28:10.273Z,86.34
2022-10-16T02:30:56.034Z,86.23
2022-10-16T02:33:31.218Z,86.14
2022-10-16T02:36:04.523Z,86.13
2022-10-16T02:38:38.074Z,86.10
2022-10-16T02:41:14.443Z,86.13
2022-10-16T02:43:47.414Z,86.23
2022-10-16T02:46:21.114Z,86.25
2022-10-16T02:48:53.797Z,86.20
2022-10-16T02:51:26.963Z,86.17
2022-10-16T02:53:59.916Z,86.20
2022-10-16T02:56:33.170Z,86.27
2022-10-16T02:59:06.103Z,86.33
2022-10-16T03:01:39.589Z,86.36
2022-10-16T03:04:12.441Z,86.33
2022-10-16T03:06:45.548Z,86.37
2022-10-16T03:09:19.564Z,86.39
2022-10-16T03:11:53.463Z,86.54
2022-10-16T03:16:59.861Z,86.72
2022-10-16T03:19:33.304Z,86.76
2022-10-16T03:22:06.141Z,86.84
2022-10-16T03:24:39.690Z,86.85
2022-10-16T03:27:12.738Z,86.88
2022-10-16T03:29:46.326Z,86.93
2022-10-16T03:32:19.630Z,86.99
2022-10-16T03:34:54.305Z,87.01
2022-10-16T03:37:27.620Z,87.07
2022-10-16T03:40:01.266Z,87.09
2022-10-16T03:42:34.477Z,87.08
2022-10-16T03:45:08.540Z,87.11
2022-10-16T03:47:40.773Z,87.14
2022-10-16T03:50:13.794Z,87.31
2022-10-16T03:52:47.006Z,87.48
2022-10-16T03:55:19.702Z,87.57
2022-10-16T03:57:52.763Z,87.59
2022-10-16T04:00:25.666Z,87.47
2022-10-16T04:02:58.476Z,87.39
2022-10-16T04:05:31.693Z,87.33
2022-10-16T04:08:05.290Z,87.19
2022-10-16T04:10:38.786Z,87.23
2022-10-16T04:13:12.408Z,87.17
2022-10-16T04:15:47.394Z,87.11
2022-10-16T04:18:20.401Z,86.91
2022-10-16T04:20:53.784Z,86.85
2022-10-16T04:23:27.226Z,86.80
2022-10-16T04:25:59.996Z,86.88
2022-10-16T04:28:33.522Z,86.92
2022-10-16T04:31:10.295Z,86.97
2022-10-16T04:33:47.301Z,86.95
2022-10-16T04:36:21.564Z,86.89
2022-10-16T04:38:54.911Z,86.86
2022-10-16T04:41:28.154Z,86.75
2022-10-16T04:44:01.096Z,86.74
2022-10-16T04:46:33.883Z,86.71
2022-10-16T04:49:06.765Z,86.60
2022-10-16T04:51:40.181Z,86.44
2022-10-16T04:54:13.723Z,86.37
2022-10-16T04:56:48.030Z,86.32
2022-10-16T04:59:22.011Z,86.29
2022-10-16T05:01:54.811Z,86.27
2022-10-16T05:04:27.875Z,86.27
2022-10-16T05:07:00.933Z,86.24
2022-10-16T05:09:34.514Z,86.21
2022-10-16T05:12:07.755Z,86.85
2022-10-16T05:14:41.380Z,87.38
2022-10-16T05:17:15.006Z,87.39
2022-10-16T05:19:48.912Z,87.35
2022-10-16T05:22:22.179Z,87.26
2022-10-16T05:24:55.177Z,87.07
2022-10-16T05:27:28.777Z,86.92
2022-10-16T05:30:02.290Z,86.50
2022-10-16T05:32:35.954Z,85.82
2022-10-16T05:35:12.561Z,85.60
2022-10-16T05:37:45.529Z,85.35
2022-10-16T05:40:19.113Z,85.29
2022-10-16T05:42:52.429Z,85.35
2022-10-16T05:45:25.565Z,85.40
2022-10-16T05:47:58.820Z,85.23
2022-10-16T05:50:31.631Z,85.16
2022-10-16T05:53:04.783Z,84.95
2022-10-16T05:55:38.987Z,84.87
2022-10-16T05:58:12.128Z,84.98
2022-10-16T06:00:45.030Z,84.95
2022-10-16T06:03:18.806Z,84.79
2022-10-16T06:05:52.711Z,84.56
2022-10-16T06:08:26.525Z,84.51
2022-10-16T06:11:07.742Z,84.40
2022-10-16T06:13:42.843Z,84.33
2022-10-16T06:16:17.484Z,84.28
2022-10-16T06:18:52.913Z,84.34
2022-10-16T06:21:28.119Z,84.27
2022-10-16T06:24:02.163Z,84.25
2022-10-16T06:26:35.278Z,84.00
2022-10-16T06:29:10.260Z,83.87
2022-10-16T06:31:43.686Z,83.72
2022-10-16T06:34:17.188Z,83.56
2022-10-16T06:36:50.163Z,83.40
2022-10-16T06:39:23.453Z,83.33
2022-10-16T06:41:56.945Z,82.96
2022-10-16T06:44:31.539Z,82.87
2022-10-16T06:47:05.176Z,82.75
2022-10-16T06:49:38.256Z,82.18
2022-10-16T06:52:11.611Z,81.22
2022-10-16T06:54:44.401Z,80.32
2022-10-16T06:57:17.309Z,79.56
2022-10-16T06:59:55.123Z,78.74
2022-10-16T07:02:25.776Z,77.53
2022-10-16T07:04:58.876Z,77.08
2022-10-16T07:07:32.775Z,76.69
2022-10-16T07:10:07.238Z,76.48
2022-10-16T07:12:41.168Z,76.00
2022-10-16T07:15:15.488Z,75.27
2022-10-16T07:17:48.207Z,74.59
2022-10-16T07:20:22.428Z,74.31
2022-10-16T07:22:55.124Z,74.41
2022-10-16T07:25:27.954Z,74.03
2022-10-16T07:28:00.734Z,73.98
2022-10-16T07:30:35.547Z,74.01
2022-10-16T07:33:07.407Z,73.94
2022-10-16T07:35:40.197Z,73.43
2022-10-16T07:38:13.021Z,72.98
2022-10-16T07:40:46.396Z,72.90
2022-10-16T07:43:19.567Z,72.39
2022-10-16T07:45:53.781Z,72.30
2022-10-16T07:48:33.045Z,72.06
2022-10-16T07:51:08.421Z,71.82
2022-10-16T07:53:41.865Z,71.16
2022-10-16T07:56:17.103Z,70.76
2022-10-16T07:58:51.436Z,70.53
2022-10-16T08:01:24.160Z,70.61
2022-10-16T08:03:56.995Z,70.19
2022-10-16T08:06:30.097Z,70.07
2022-10-16T08:09:03.037Z,70.01
2022-10-16T08:11:36.314Z,69.91
2022-10-16T08:14:09.659Z,69.56
2022-10-16T08:16:43.046Z,69.26
2022-10-16T08:19:17.021Z,68.84
2022-10-16T08:21:53.118Z,68.38
2022-10-16T08:24:25.801Z,68.33
2022-10-16T08:26:59.157Z,68.43
2022-10-16T08:29:32.206Z,67.74
2022-10-16T08:32:07.590Z,67.02
2022-10-16T08:34:40.413Z,66.71
2022-10-16T08:37:14.994Z,66.19
2022-10-16T08:39:49.281Z,66.15
2022-10-16T08:42:35.673Z,65.85
2022-10-16T08:45:34.589Z,65.32
2022-10-16T08:48:20.752Z,64.99
2022-10-16T08:50:54.999Z,65.09
2022-10-16T08:53:32.709Z,64.56
2022-10-16T08:56:06.887Z,64.59
2022-10-16T08:58:39.842Z,64.32
2022-10-16T09:01:17.511Z,63.74
2022-10-16T09:04:21.056Z,62.86
2022-10-16T09:07:03.842Z,62.43
2022-10-16T09:09:53.189Z,62.00
2022-10-16T09:12:33.624Z,61.68
2022-10-16T09:15:35.521Z,61.79
2022-10-16T09:18:35.718Z,61.76
2022-10-16T09:21:30.825Z,62.15
2022-10-16T09:24:18.090Z,61.60
2022-10-16T09:26:51.136Z,61.11
2022-10-16T09:29:26.527Z,61.10
2022-10-16T09:32:02.923Z,61.16
2022-10-16T09:34:38.440Z,61.18
2022-10-16T09:37:23.730Z,60.80
2022-10-16T09:39:58.183Z,60.28
2022-10-16T09:42:37.594Z,59.48
2022-10-16T09:45:23.688Z,59.45
2022-10-16T09:47:57.866Z,59.19
2022-10-16T09:50:31.544Z,58.75
2022-10-16T09:53:13.842Z,58.38
2022-10-16T09:55:55.269Z,58.62
2022-10-16T09:58:28.028Z,58.61
2022-10-16T10:01:01.912Z,58.75
2022-10-16T10:03:41.658Z,57.96
2022-10-16T10:06:27.989Z,57.99
2022-10-16T10:09:20.464Z,58.06
2022-10-16T10:12:04.697Z,57.13
2022-10-16T10:14:45.218Z,56.81
2022-10-16T10:17:23.953Z,56.23
2022-10-16T10:20:03.049Z,56.24
2022-10-16T10:22:46.535Z,56.17
2022-10-16T10:25:47.172Z,56.53
2022-10-16T10:28:33.383Z,56.23
2022-10-16T10:31:38.282Z,56.52
2022-10-16T10:34:39.399Z,56.57
2022-10-16T10:37:25.956Z,56.46
2022-10-16T10:40:35.965Z,56.84
2022-10-16T10:43:42.391Z,56.63
2022-10-16T10:46:20.204Z,57.18
2022-10-16T10:49:25.945Z,57.04
2022-10-16T10:52:30.254Z,56.36
2022-10-16T10:55:29.189Z,56.51
2022-10-16T10:58:38.777Z,56.70
2022-10-16T11:01:21.364Z,56.46
2022-10-16T11:04:13.035Z,56.37
2022-10-16T11:06:52.986Z,56.32
2022-10-16T11:09:42.524Z,55.83
2022-10-16T11:12:44.930Z,55.86
2022-10-16T11:15:31.885Z,55.98
2022-10-16T11:18:37.074Z,55.83
2022-10-16T11:21:11.795Z,56.17
2022-10-16T11:23:49.130Z,56.03
2022-10-16T11:26:32.577Z,56.11
2022-10-16T11:29:06.908Z,55.99
2022-10-16T11:31:44.640Z,55.69
2022-10-16T11:34:31.771Z,55.13
2022-10-16T11:37:35.258Z,54.93
2022-10-16T11:40:35.115Z,54.51
2022-10-16T11:43:19.468Z,54.31
2022-10-16T11:45:59.458Z,54.76
2022-10-16T11:49:06.206Z,54.77
2022-10-16T11:51:47.458Z,54.67
2022-10-16T11:54:43.922Z,54.41
2022-10-16T11:57:30.423Z,54.26
2022-10-16T12:00:32.160Z,54.23
2022-10-16T12:03:30.997Z,54.23
2022-10-16T12:06:39.425Z,54.08
2022-10-16T12:09:17.585Z,54.18
2022-10-16T12:11:51.022Z,54.41
2022-10-16T12:15:04.039Z,54.42
2022-10-16T12:17:38.040Z,54.25
2022-10-16T12:20:32.720Z,54.17
2022-10-16T12:23:08.087Z,53.94
2022-10-16T12:25:44.422Z,54.43
2022-10-16T12:28:26.793Z,54.61
2022-10-16T12:31:03.910Z,54.57
2022-10-16T12:33:47.752Z,54.47
2022-10-16T12:36:35.748Z,54.12
2022-10-16T12:39:08.518Z,53.81
2022-10-16T12:41:41.590Z,53.88
2022-10-16T12:44:27.691Z,54.08
2022-10-16T12:47:01.119Z,53.91
2022-10-16T12:49:39.531Z,53.93
2022-10-16T12:52:39.504Z,54.17
2022-10-16T12:55:17.084Z,54.09
2022-10-16T12:58:12.584Z,54.35
2022-10-16T13:00:54.427Z,54.36
2022-10-16T13:04:08.348Z,54.36
2022-10-16T13:07:04.096Z,54.46
2022-10-16T13:10:06.564Z,54.64
2022-10-16T13:13:02.844Z,54.81
2022-10-16T13:15:55.557Z,54.97
2022-10-16T13:18:41.562Z,54.69
2022-10-16T13:21:29.959Z,54.98
2022-10-16T13:24:28.994Z,55.02
2022-10-16T13:27:24.873Z,55.28
2022-10-16T13:30:06.146Z,55.68
2022-10-16T13:32:38.881Z,56.10
2022-10-16T13:35:28.730Z,56.06
2022-10-16T13:38:20.619Z,56.12
2022-10-16T13:41:06.275Z,56.31
2022-10-16T13:43:45.790Z,56.56
2022-10-16T13:46:21.748Z,56.76
2022-10-16T13:49:07.377Z,56.88
2022-10-16T13:51:41.407Z,56.97
2022-10-16T13:54:14.691Z,57.16
2022-10-16T13:56:47.830Z,57.23
2022-10-16T13:59:29.964Z,57.40
2022-10-16T14:02:10.585Z,57.63
2022-10-16T14:04:44.630Z,57.92
2022-10-16T14:07:24.393Z,58.34
2022-10-16T14:09:59.036Z,58.58
2022-10-16T14:12:33.111Z,58.92
2022-10-16T14:15:09.994Z,58.99
2022-10-16T14:17:46.094Z,59.16
2022-10-16T14:20:20.023Z,59.36
2022-10-16T14:23:03.631Z,59.59
2022-10-16T14:25:36.697Z,59.79
2022-10-16T14:28:21.326Z,60.08
2022-10-16T14:30:59.049Z,60.25
2022-10-16T14:33:35.846Z,60.43
2022-10-16T14:36:19.345Z,60.67
2022-10-16T14:39:05.530Z,60.89
2022-10-16T14:41:51.044Z,61.21
2022-10-16T14:44:30.941Z,61.51
2022-10-16T14:47:16.480Z,61.78
2022-10-16T14:49:49.370Z,62.06
2022-10-16T14:52:22.510Z,62.38
2022-10-16T14:54:57.219Z,62.63
2022-10-16T14:57:31.749Z,62.76
2022-10-16T15:00:06.655Z,62.95
2022-10-16T15:02:39.831Z,63.19
2022-10-16T15:05:28.775Z,63.46
2022-10-16T15:08:02.177Z,63.67
2022-10-16T15:10:39.832Z,63.91
2022-10-16T15:13:16.112Z,64.10
2022-10-16T15:15:53.313Z,64.36
2022-10-16T15:18:26.344Z,64.58
2022-10-16T15:20:59.763Z,64.88
2022-10-16T15:23:33.033Z,65.16
2022-10-16T15:26:06.178Z,65.50
2022-10-16T15:28:39.274Z,65.87
2022-10-16T15:31:12.950Z,66.12
2022-10-16T15:33:47.933Z,66.45
2022-10-16T15:36:38.153Z,66.66
2022-10-16T15:39:21.427Z,66.83
2022-10-16T15:41:54.811Z,66.99
2022-10-16T15:44:29.371Z,67.22
2022-10-16T15:47:05.107Z,67.37
2022-10-16T15:49:38.204Z,67.50
2022-10-16T15:52:11.995Z,67.84
2022-10-16T15:54:50.402Z,68.05
2022-10-16T15:57:20.458Z,68.36
2022-10-16T16:02:28.694Z,69.00
2022-10-16T16:05:03.022Z,69.18
2022-10-16T16:07:41.871Z,69.34
2022-10-16T16:10:16.114Z,69.42
2022-10-16T16:12:54.071Z,69.35
2022-10-16T16:15:28.422Z,69.18
2022-10-16T16:18:02.979Z,69.01
2022-10-16T16:20:37.760Z,68.93
2022-10-16T16:23:10.956Z,68.91
2022-10-16T16:25:45.371Z,69.02
2022-10-16T16:28:18.095Z,69.09
2022-10-16T16:30:53.712Z,69.28
2022-10-16T16:33:26.711Z,69.36
2022-10-16T16:36:05.013Z,69.42
2022-10-16T16:38:37.828Z,69.43
2022-10-16T16:41:24.092Z,69.29
2022-10-16T16:43:58.279Z,69.22
2022-10-16T16:46:32.051Z,69.21
2022-10-16T16:49:05.674Z,69.27
2022-10-16T16:51:40.870Z,69.24
2022-10-16T16:54:15.186Z,69.26
2022-10-16T16:56:49.508Z,69.22
2022-10-16T16:59:23.659Z,69.26
2022-10-16T17:01:57.141Z,69.28
2022-10-16T17:04:30.615Z,69.28
2022-10-16T17:07:04.483Z,69.21
2022-10-16T17:09:38.040Z,69.23
2022-10-16T17:12:11.408Z,69.29
2022-10-16T17:14:49.168Z,69.41
2022-10-16T17:17:21.978Z,69.50
2022-10-16T17:19:55.527Z,69.49
2022-10-16T17:22:28.632Z,69.46
2022-10-16T17:25:04.174Z,69.42
2022-10-16T17:27:37.851Z,69.36
2022-10-16T17:30:11.923Z,69.20
2022-10-16T17:32:47.187Z,69.02
2022-10-16T17:35:21.790Z,68.89
2022-10-16T17:37:55.854Z,68.99
2022-10-16T17:40:31.399Z,69.02
2022-10-16T17:43:04.748Z,69.10
2022-10-16T17:45:43.233Z,69.16
2022-10-16T17:48:16.143Z,69.26
2022-10-16T17:50:49.450Z,69.39
2022-10-16T17:53:22.847Z,69.64
2022-10-16T17:55:57.487Z,69.75
2022-10-16T17:58:32.212Z,69.80
2022-10-16T18:01:06.359Z,69.84
2022-10-16T18:03:39.072Z,69.66
2022-10-16T18:06:13.806Z,69.66
2022-10-16T18:08:48.377Z,69.67
2022-10-16T18:11:23.755Z,69.67
2022-10-16T18:13:59.175Z,69.71
2022-10-16T18:16:31.905Z,69.93
2022-10-16T18:19:05.177Z,70.05
2022-10-16T18:21:38.048Z,70.15
2022-10-16T18:24:11.759Z,70.26
2022-10-16T18:26:45.666Z,70.42
2022-10-16T18:29:19.992Z,70.50
2022-10-16T18:31:53.013Z,70.67
2022-10-16T18:34:27.478Z,70.91
2022-10-16T18:37:00.566Z,71.03
2022-10-16T18:39:34.578Z,71.20
2022-10-16T18:42:07.780Z,71.28
2022-10-16T18:44:40.922Z,71.32
2022-10-16T18:47:14.016Z,71.42
2022-10-16T18:49:49.140Z,71.55
2022-10-16T18:52:23.835Z,71.79
2022-10-16T18:54:58.554Z,71.95
2022-10-16T18:57:32.507Z,72.04
2022-10-16T19:00:06.079Z,72.20
2022-10-16T19:02:39.777Z,72.25
2022-10-16T19:05:15.616Z,72.28
2022-10-16T19:07:49.378Z,72.14
2022-10-16T19:10:22.596Z,72.10
2022-10-16T19:12:56.204Z,72.03
2022-10-16T19:15:29.110Z,72.04
2022-10-16T19:18:02.429Z,72.13
2022-10-16T19:20:35.774Z,72.25
2022-10-16T19:23:08.760Z,72.31
2022-10-16T19:25:41.997Z,72.51
2022-10-16T19:28:15.459Z,72.68
2022-10-16T19:30:49.231Z,72.82
2022-10-16T19:33:22.476Z,72.94
2022-10-16T19:35:55.451Z,73.10
2022-10-16T19:38:28.239Z,73.29
2022-10-16T19:41:10.534Z,73.49
2022-10-16T19:43:44.321Z,73.59
2022-10-16T19:46:23.469Z,73.73
2022-10-16T19:49:02.783Z,73.83
2022-10-16T19:51:37.555Z,73.97
2022-10-16T19:54:14.955Z,74.04
2022-10-16T19:56:47.764Z,74.13
2022-10-16T19:59:20.945Z,74.27
2022-10-16T20:01:54.270Z,75.00
2022-10-16T20:04:27.582Z,75.00
2022-10-16T20:07:00.662Z,74.97
2022-10-16T20:09:35.716Z,75.26
2022-10-16T20:12:08.546Z,75.56
2022-10-16T20:14:42.503Z,75.78
2022-10-16T20:17:15.639Z,75.87
2022-10-16T20:19:48.553Z,75.93
2022-10-16T20:22:21.952Z,75.89
2022-10-16T20:24:55.792Z,75.88
2022-10-16T20:27:29.980Z,75.83
2022-10-16T20:30:03.351Z,75.77
2022-10-16T20:32:36.918Z,75.77
2022-10-16T20:35:10.708Z,75.76
2022-10-16T20:37:45.049Z,75.73
2022-10-16T20:40:17.272Z,75.72
2022-10-16T20:42:50.894Z,75.68
2022-10-16T20:45:24.450Z,75.68
2022-10-16T20:47:57.346Z,75.70
2022-10-16T20:50:33.824Z,75.75
2022-10-16T20:53:06.929Z,75.73
2022-10-16T20:55:40.212Z,75.69
2022-10-16T20:58:13.484Z,75.73
2022-10-16T21:00:47.028Z,75.82
2022-10-16T21:03:22.041Z,75.79
2022-10-16T21:05:57.867Z,75.72
2022-10-16T21:08:30.703Z,75.65
2022-10-16T21:11:05.294Z,75.54
2022-10-16T21:13:40.012Z,75.48
2022-10-16T21:16:14.175Z,75.43
2022-10-16T21:18:47.628Z,75.44
2022-10-16T21:21:30.760Z,75.52
2022-10-16T21:24:03.721Z,75.52
2022-10-16T21:26:36.721Z,75.47
2022-10-16T21:29:11.352Z,75.38
2022-10-16T21:31:45.612Z,75.38
2022-10-16T21:34:18.294Z,75.42
2022-10-16T21:36:51.628Z,75.45
2022-10-16T21:39:24.696Z,75.55
2022-10-16T21:41:57.933Z,75.67
2022-10-16T21:44:30.794Z,75.88
2022-10-16T21:47:04.919Z,76.13
2022-10-16T21:49:38.477Z,76.24
2022-10-16T21:52:12.005Z,76.38
2022-10-16T21:54:44.740Z,76.50
2022-10-16T21:57:17.712Z,76.57
2022-10-16T21:59:54.748Z,76.66
2022-10-16T22:02:27.632Z,76.87
2022-10-16T22:05:00.898Z,77.13
2022-10-16T22:07:35.266Z,77.32
2022-10-16T22:10:09.383Z,77.44
2022-10-16T22:12:42.091Z,77.60
2022-10-16T22:15:15.382Z,77.70
2022-10-16T22:17:48.420Z,77.83
2022-10-16T22:20:21.691Z,77.96
2022-10-16T22:22:54.554Z,78.10
2022-10-16T22:25:27.307Z,78.24
2022-10-16T22:28:00.172Z,78.41
2022-10-16T22:30:33.166Z,78.59
2022-10-16T22:33:07.991Z,78.65
2022-10-16T22:35:42.678Z,78.74
2022-10-16T22:38:15.522Z,78.77
2022-10-16T22:40:48.588Z,78.77
2022-10-16T22:43:21.524Z,78.81
2022-10-16T22:45:54.357Z,78.85
2022-10-16T22:48:27.302Z,78.86
2022-10-16T22:51:00.047Z,78.89
2022-10-16T22:53:34.255Z,78.87
2022-10-16T22:56:07.385Z,78.87
2022-10-16T22:58:40.429Z,78.85
2022-10-16T23:01:20.462Z,78.84
2022-10-16T23:03:53.213Z,78.91
2022-10-16T23:06:26.484Z,79.06
2022-10-16T23:09:02.917Z,79.26
2022-10-16T23:11:37.286Z,79.49
2022-10-16T23:14:10.257Z,79.61
2022-10-16T23:16:43.204Z,79.69
2022-10-16T23:19:17.030Z,79.86
2022-10-16T23:21:51.610Z,79.99
2022-10-16T23:24:25.041Z,80.14
2022-10-16T23:26:57.976Z,80.28
2022-10-16T23:29:30.982Z,80.44
2022-10-16T23:32:03.875Z,80.55
2022-10-16T23:34:37.968Z,80.56
2022-10-16T23:37:10.860Z,80.56
2022-10-16T23:39:44.501Z,80.62
2022-10-16T23:42:17.222Z,80.65
2022-10-16T23:44:50.324Z,80.78
2022-10-16T23:47:24.139Z,80.86
2022-10-16T23:49:57.172Z,81.04
2022-10-16T23:52:30.039Z,81.15
2022-10-16T23:55:03.034Z,81.25
2022-10-16T23:57:36.174Z,81.34
